Terminal Aerodrome Forecast
Issued by NWS

Home | Current Version | Previous Version | Text Only | Print | Product List | Glossary On
Versions: 1 2 3 4 5 6 7 8 9 10 11 12
119
FTUS43 KPAH 131120
TAFCGI
TAF
KCGI 131120Z 1312/1412 20008KT P6SM SKC
     FM131500 22018G30KT P6SM SCT250
     FM132200 25010KT P6SM FEW250
     FM140300 33008KT P6SM SCT150=

USA.gov is the U.S. government's official web portal to all federal, state and local government web resources and services.